createdAt,value
2023-04-19T00:00:09.699Z,96632.00
2023-04-19T00:02:40.949Z,96634.81
2023-04-19T00:05:11.986Z,96623.00
2023-04-19T00:07:40.496Z,96623.34
2023-04-19T00:10:11.316Z,96630.00
2023-04-19T00:12:39.903Z,96619.25
2023-04-19T00:15:08.778Z,96616.38
2023-04-19T00:17:36.897Z,96611.94
2023-04-19T00:20:05.598Z,96611.56
2023-04-19T00:22:33.714Z,96611.78
2023-04-19T00:25:02.557Z,96607.16
2023-04-19T00:27:32.355Z,96601.47
2023-04-19T00:30:00.874Z,96599.03
2023-04-19T00:32:29.116Z,96589.44
2023-04-19T00:34:58.984Z,96596.16
2023-04-19T00:37:27.119Z,96592.47
2023-04-19T00:39:55.755Z,96586.78
2023-04-19T00:42:23.861Z,96587.59
2023-04-19T00:44:53.409Z,96592.69
2023-04-19T00:47:21.656Z,96586.63
2023-04-19T00:49:49.832Z,96589.84
2023-04-19T00:52:18.386Z,96578.16
2023-04-19T00:54:47.136Z,96581.03
2023-04-19T00:57:15.517Z,96577.34
2023-04-19T00:59:43.877Z,96580.69
2023-04-19T01:02:13.729Z,96575.00
2023-04-19T01:04:42.260Z,96570.97
2023-04-19T01:07:10.419Z,96571.19
2023-04-19T01:09:41.913Z,96567.72
2023-04-19T01:12:10.068Z,96566.44
2023-04-19T01:14:38.207Z,96557.28
2023-04-19T01:17:07.496Z,96557.28
2023-04-19T01:19:37.323Z,96567.94
2023-04-19T01:22:06.581Z,96557.28
2023-04-19T01:24:36.266Z,96563.41
2023-04-19T01:27:04.423Z,96559.34
2023-04-19T01:29:32.535Z,96560.97
2023-04-19T01:32:01.105Z,96559.59
2023-04-19T01:34:29.403Z,96552.88
2023-04-19T01:36:58.209Z,96552.06
2023-04-19T01:39:27.394Z,96552.31
2023-04-19T01:41:56.988Z,96552.53
2023-04-19T01:44:25.198Z,96553.69
2023-04-19T01:46:55.130Z,96548.59
2023-04-19T01:49:23.262Z,96546.97
2023-04-19T01:51:51.395Z,96542.91
2023-04-19T01:54:19.534Z,96540.03
2023-04-19T01:56:50.664Z,96546.38
2023-04-19T01:59:20.604Z,96550.69
2023-04-19T02:01:48.854Z,96527.19
2023-04-19T02:04:17.528Z,96531.94
2023-04-19T02:06:45.965Z,96532.16
2023-04-19T02:09:14.083Z,96531.94
2023-04-19T02:11:43.656Z,96526.66
2023-04-19T02:14:11.841Z,96517.56
2023-04-19T02:16:41.922Z,96526.25
2023-04-19T02:19:10.274Z,96527.88
2023-04-19T02:21:38.418Z,96524.84
2023-04-19T02:24:07.022Z,96527.75
2023-04-19T02:26:35.534Z,96526.13
2023-04-19T02:29:06.323Z,96524.25
2023-04-19T02:31:35.001Z,96519.88
2023-04-19T02:34:04.528Z,96521.34
2023-04-19T02:36:34.737Z,96517.09
2023-04-19T02:39:05.644Z,96516.50
2023-04-19T02:41:33.752Z,96511.84
2023-04-19T02:44:03.447Z,96513.09
2023-04-19T02:46:31.769Z,96510.69
2023-04-19T02:49:01.953Z,96513.00
2023-04-19T02:51:31.674Z,96506.28
2023-04-19T02:54:00.500Z,96504.91
2023-04-19T02:56:28.783Z,96497.97
2023-04-19T02:58:57.171Z,96498.41
2023-04-19T03:01:25.515Z,96496.78
2023-04-19T03:03:53.777Z,96494.00
2023-04-19T03:06:22.488Z,96502.19
2023-04-19T03:08:51.986Z,96496.50
2023-04-19T03:11:21.165Z,96497.75
2023-04-19T03:13:49.318Z,96495.78
2023-04-19T03:16:17.611Z,96487.44
2023-04-19T03:18:48.051Z,96492.97
2023-04-19T03:21:20.172Z,96486.50
2023-04-19T03:23:55.940Z,96486.50
2023-04-19T03:26:26.367Z,96484.72
2023-04-19T03:28:57.478Z,96478.72
2023-04-19T03:31:41.494Z,96481.03
2023-04-19T03:34:13.607Z,96469.66
2023-04-19T03:36:45.456Z,96466.63
2023-04-19T03:39:15.025Z,96472.44
2023-04-19T03:41:46.021Z,96467.78
2023-04-19T03:44:36.960Z,96471.94
2023-04-19T03:47:07.556Z,96473.19
2023-04-19T03:49:41.679Z,96471.13
2023-04-19T03:52:09.923Z,96473.84
2023-04-19T03:54:39.474Z,96471.28
2023-04-19T03:57:13.322Z,96476.66
2023-04-19T03:59:41.832Z,96468.09
2023-04-19T04:02:11.267Z,96468.31
2023-04-19T04:04:39.776Z,96466.25
2023-04-19T04:07:09.401Z,96460.16
2023-04-19T04:09:39.049Z,96463.75
2023-04-19T04:12:07.575Z,96471.91
2023-04-19T04:14:36.172Z,96473.03
2023-04-19T04:17:06.352Z,96465.16
2023-04-19T04:19:34.463Z,96473.72
2023-04-19T04:22:02.760Z,96466.41
2023-04-19T04:24:41.974Z,96467.59
2023-04-19T04:27:23.328Z,96467.72
2023-04-19T04:29:56.822Z,96470.44
2023-04-19T04:32:25.467Z,96470.50
2023-04-19T04:34:59.241Z,96463.84
2023-04-19T04:37:40.275Z,96473.06
2023-04-19T04:40:11.737Z,96474.44
2023-04-19T04:42:40.885Z,96475.59
2023-04-19T04:45:10.794Z,96471.88
2023-04-19T04:47:40.295Z,96464.50
2023-04-19T04:50:09.839Z,96464.94
2023-04-19T04:52:37.995Z,96470.69
2023-04-19T04:55:18.596Z,96462.50
2023-04-19T04:57:46.750Z,96464.13
2023-04-19T05:00:22.190Z,96463.09
2023-04-19T05:03:02.314Z,96461.31
2023-04-19T05:05:32.240Z,96456.03
2023-04-19T05:08:01.228Z,96458.06
2023-04-19T05:10:31.110Z,96465.44
2023-04-19T05:12:59.257Z,96463.66
2023-04-19T05:15:29.768Z,96462.84
2023-04-19T05:17:58.732Z,96457.69
2023-04-19T05:20:27.742Z,96458.50
2023-04-19T05:23:08.260Z,96454.41
2023-04-19T05:25:37.862Z,96459.91
2023-04-19T05:28:06.404Z,96452.84
2023-04-19T05:30:43.588Z,96457.16
2023-04-19T05:33:12.712Z,96454.50
2023-04-19T05:35:40.961Z,96444.50
2023-04-19T05:38:09.202Z,96452.88
2023-04-19T05:40:40.138Z,96448.44
2023-04-19T05:43:08.339Z,96447.22
2023-04-19T05:45:36.529Z,96447.44
2023-04-19T05:48:05.456Z,96443.53
2023-04-19T05:50:36.832Z,96448.78
2023-04-19T05:53:31.958Z,96434.19
2023-04-19T05:56:02.409Z,96443.56
2023-04-19T05:58:30.846Z,96433.44
2023-04-19T06:00:59.841Z,96441.94
2023-04-19T06:03:31.107Z,96442.34
2023-04-19T06:06:01.684Z,96446.00
2023-04-19T06:08:29.865Z,96439.09
2023-04-19T06:11:02.185Z,96440.72
2023-04-19T06:13:37.740Z,96450.97
2023-04-19T06:16:07.946Z,96441.88
2023-04-19T06:18:36.174Z,96442.81
2023-04-19T06:21:04.330Z,96441.88
2023-04-19T06:23:32.393Z,96443.31
2023-04-19T06:26:00.656Z,96449.28
2023-04-19T06:28:29.335Z,96449.56
2023-04-19T06:30:58.796Z,96448.41
2023-04-19T06:33:26.967Z,96461.53
2023-04-19T06:35:55.028Z,96464.50
2023-04-19T06:38:23.184Z,96458.91
2023-04-19T06:40:51.277Z,96464.41
2023-04-19T06:43:19.929Z,96457.13
2023-04-19T06:45:48.275Z,96469.94
2023-04-19T06:48:17.985Z,96471.63
2023-04-19T06:50:46.077Z,96467.78
2023-04-19T06:53:14.229Z,96471.03
2023-04-19T06:55:42.902Z,96476.50
2023-04-19T06:58:11.008Z,96473.66
2023-04-19T07:00:39.146Z,96471.22
2023-04-19T07:03:07.383Z,96466.53
2023-04-19T07:05:37.861Z,96465.69
2023-04-19T07:08:06.226Z,96462.44
2023-04-19T07:10:34.758Z,96470.94
2023-04-19T07:13:03.148Z,96461.34
2023-04-19T07:15:31.457Z,96458.31
2023-04-19T07:17:59.587Z,96452.38
2023-04-19T07:20:27.750Z,96460.00
2023-04-19T07:22:57.277Z,96459.50
2023-04-19T07:25:25.368Z,96459.19
2023-04-19T07:27:54.051Z,96447.25
2023-04-19T07:30:22.387Z,96449.75
2023-04-19T07:32:51.817Z,96445.84
2023-04-19T07:35:20.904Z,96442.13
2023-04-19T07:37:49.512Z,96440.03
2023-04-19T07:40:19.228Z,96442.81
2023-04-19T07:42:47.388Z,96443.09
2023-04-19T07:45:15.752Z,96439.41
2023-04-19T07:47:44.030Z,96435.41
2023-04-19T07:50:12.683Z,96434.94
2023-04-19T07:52:40.856Z,96440.88
2023-04-19T07:55:09.809Z,96450.38
2023-04-19T07:57:39.281Z,96447.81
2023-04-19T08:00:10.555Z,96442.72
2023-04-19T08:02:45.748Z,96445.75
2023-04-19T08:05:14.763Z,96446.88
2023-04-19T08:07:42.983Z,96440.66
2023-04-19T08:10:11.441Z,96442.00
2023-04-19T08:12:50.382Z,96434.03
2023-04-19T08:16:04.969Z,96436.16
2023-04-19T08:18:13.696Z,96436.84
2023-04-19T08:20:42.698Z,96429.84
2023-04-19T08:23:21.636Z,96430.41
2023-04-19T08:25:54.051Z,96428.41
2023-04-19T08:28:24.601Z,96427.56
2023-04-19T08:30:53.529Z,96425.19
2023-04-19T08:33:21.744Z,96423.81
2023-04-19T08:35:50.125Z,96415.56
2023-04-19T08:38:18.243Z,96420.16
2023-04-19T08:40:47.793Z,96411.88
2023-04-19T08:43:16.676Z,96407.16
2023-04-19T08:45:47.660Z,96413.06
2023-04-19T08:48:16.426Z,96414.28
2023-04-19T08:51:00.676Z,96418.09
2023-04-19T08:53:32.072Z,96409.78
2023-04-19T08:58:51.917Z,96417.63
2023-04-19T09:01:34.828Z,96415.25
2023-04-19T09:04:26.588Z,96405.16
2023-04-19T09:06:55.676Z,96413.63
2023-04-19T09:09:35.463Z,96414.31
2023-04-19T09:12:17.466Z,96411.53
2023-04-19T09:14:59.997Z,96408.53
2023-04-19T09:17:31.330Z,96396.75
2023-04-19T09:19:59.715Z,96383.84
2023-04-19T09:22:27.862Z,96370.53
2023-04-19T09:27:29.086Z,96386.03
2023-04-19T09:29:57.718Z,96381.16
2023-04-19T09:32:26.098Z,96374.06
2023-04-19T09:34:56.585Z,96371.81
2023-04-19T09:39:56.200Z,96367.31
2023-04-19T09:42:47.433Z,96377.19
2023-04-19T09:45:29.363Z,96365.13
2023-04-19T09:48:02.596Z,96357.28
2023-04-19T09:50:33.828Z,96358.75
2023-04-19T09:53:04.668Z,96354.16
2023-04-19T09:55:39.261Z,96346.41
2023-04-19T09:58:16.950Z,96358.31
2023-04-19T10:00:49.987Z,96357.78
2023-04-19T10:03:22.137Z,96339.31
2023-04-19T10:05:52.273Z,96348.56
2023-04-19T10:08:20.407Z,96347.41
2023-04-19T10:10:49.627Z,96347.13
2023-04-19T10:13:20.709Z,96335.06
2023-04-19T10:15:54.113Z,96334.75
2023-04-19T10:18:25.340Z,96333.19
2023-04-19T10:20:58.384Z,96334.91
2023-04-19T10:23:26.510Z,96342.69
2023-04-19T10:25:57.093Z,96340.91
2023-04-19T10:28:25.333Z,96337.66
2023-04-19T10:30:56.946Z,96338.72
2023-04-19T10:33:29.086Z,96334.94
2023-04-19T10:35:59.031Z,96327.88
2023-04-19T10:38:41.472Z,96328.16
2023-04-19T10:41:16.914Z,96321.75
2023-04-19T10:43:46.963Z,96313.09
2023-04-19T10:46:16.570Z,96319.28
2023-04-19T10:48:54.989Z,96321.59
2023-04-19T10:51:25.407Z,96312.59
2023-04-19T10:53:57.694Z,96318.22
2023-04-19T10:57:12.029Z,96308.47
2023-04-19T10:59:43.155Z,96304.06
2023-04-19T11:02:30.728Z,96311.22
2023-04-19T11:05:02.534Z,96304.13
2023-04-19T11:07:38.159Z,96292.81
2023-04-19T11:10:06.798Z,96287.47
2023-04-19T11:12:35.061Z,96294.38
2023-04-19T11:15:03.371Z,96287.53
2023-04-19T11:17:32.462Z,96292.22
2023-04-19T11:20:01.804Z,96281.09
2023-04-19T11:22:34.742Z,96270.00
2023-04-19T11:25:10.406Z,96282.25
2023-04-19T11:27:38.689Z,96271.72
2023-04-19T11:30:08.290Z,96278.56
2023-04-19T11:32:36.783Z,96273.75
2023-04-19T11:35:08.992Z,96268.13
2023-04-19T11:37:39.055Z,96272.88
2023-04-19T11:40:08.624Z,96257.28
2023-04-19T11:42:37.523Z,96259.41
2023-04-19T11:45:13.095Z,96265.72
2023-04-19T11:47:50.258Z,96265.00
2023-04-19T11:50:42.279Z,96266.16
2023-04-19T11:53:16.251Z,96258.25
2023-04-19T11:55:45.684Z,96254.00
2023-04-19T11:58:30.007Z,96242.66
2023-04-19T12:01:00.924Z,96246.25
2023-04-19T12:03:29.378Z,96249.38
2023-04-19T12:05:58.427Z,96241.28
2023-04-19T12:08:35.044Z,96231.38
2023-04-19T12:11:03.764Z,96239.91
2023-04-19T12:13:32.012Z,96235.97
2023-04-19T12:16:00.206Z,96231.53
2023-04-19T12:18:28.362Z,96225.69
2023-04-19T12:20:57.549Z,96219.03
2023-04-19T12:23:26.978Z,96223.47
2023-04-19T12:25:56.477Z,96226.38
2023-04-19T12:28:24.629Z,96228.91
2023-04-19T12:30:53.052Z,96228.31
2023-04-19T12:33:23.367Z,96222.88
2023-04-19T12:35:52.322Z,96229.41
2023-04-19T12:38:20.439Z,96215.34
2023-04-19T12:40:48.583Z,96224.19
2023-04-19T12:43:18.173Z,96217.31
2023-04-19T12:45:46.313Z,96217.19
2023-04-19T12:48:14.463Z,96222.28
2023-04-19T12:50:43.090Z,96199.44
2023-04-19T12:53:11.192Z,96212.00
2023-04-19T12:55:39.335Z,96211.97
2023-04-19T12:58:07.417Z,96204.16
2023-04-19T13:00:36.909Z,96209.84
2023-04-19T13:03:05.277Z,96202.28
2023-04-19T13:05:33.881Z,96214.72
2023-04-19T13:08:02.122Z,96202.59
2023-04-19T13:10:30.664Z,96197.78
2023-04-19T13:12:59.255Z,96191.31
2023-04-19T13:15:28.683Z,96195.16
2023-04-19T13:17:58.812Z,96193.25
2023-04-19T13:20:26.950Z,96187.59
2023-04-19T13:22:55.061Z,96194.94
2023-04-19T13:25:23.164Z,96192.41
2023-04-19T13:27:51.757Z,96198.53
2023-04-19T13:30:19.855Z,96203.56
2023-04-19T13:32:48.438Z,96212.53
2023-04-19T13:35:17.928Z,96199.16
2023-04-19T13:37:47.585Z,96188.56
2023-04-19T13:40:18.835Z,96197.28
2023-04-19T13:42:47.707Z,96192.13
2023-04-19T13:45:16.340Z,96185.22
2023-04-19T13:47:44.466Z,96172.72
2023-04-19T13:50:13.153Z,96178.13
2023-04-19T13:52:42.779Z,96172.59
2023-04-19T13:55:11.096Z,96169.34
2023-04-19T13:57:39.244Z,96164.78
2023-04-19T14:00:09.222Z,96159.63
2023-04-19T14:02:37.496Z,96163.06
2023-04-19T14:05:06.585Z,96164.31
2023-04-19T14:07:35.022Z,96153.53
2023-04-19T14:10:04.665Z,96151.91
2023-04-19T14:12:33.233Z,96146.50
2023-04-19T14:15:01.361Z,96146.03
2023-04-19T14:17:29.527Z,96157.44
2023-04-19T14:19:57.833Z,96154.72
2023-04-19T14:22:25.923Z,96146.03
2023-04-19T14:24:54.441Z,96139.16
2023-04-19T14:27:23.932Z,96137.69
2023-04-19T14:29:52.086Z,96130.84
2023-04-19T14:34:51.401Z,96128.81
2023-04-19T14:37:19.565Z,96125.31
2023-04-19T14:39:48.226Z,96119.72
2023-04-19T14:42:16.346Z,96116.16
2023-04-19T14:44:47.214Z,96115.41
2023-04-19T14:47:15.366Z,96136.63
2023-04-19T14:49:43.509Z,96169.84
2023-04-19T14:52:12.089Z,96175.84
2023-04-19T14:54:40.298Z,96165.41
2023-04-19T14:57:08.469Z,96169.06
2023-04-19T14:59:36.712Z,96185.63
2023-04-19T15:02:06.217Z,96171.06
2023-04-19T15:04:37.418Z,96180.72
2023-04-19T15:07:07.402Z,96173.00
2023-04-19T15:09:35.532Z,96169.22
2023-04-19T15:12:03.656Z,96161.00
2023-04-19T15:14:31.749Z,96155.03
2023-04-19T15:16:59.845Z,96146.38
2023-04-19T15:19:30.881Z,96153.72
2023-04-19T15:21:58.993Z,96148.53
2023-04-19T15:24:27.179Z,96145.94
2023-04-19T15:26:56.663Z,96144.91
2023-04-19T15:29:24.973Z,96141.66
2023-04-19T15:31:53.339Z,96132.53
2023-04-19T15:34:22.085Z,96135.69
2023-04-19T15:36:51.689Z,96124.47
2023-04-19T15:39:19.766Z,96128.75
2023-04-19T15:41:47.906Z,96127.41
2023-04-19T15:44:16.019Z,96122.25
2023-04-19T15:46:44.190Z,96117.34
2023-04-19T15:49:12.789Z,96120.94
2023-04-19T15:51:40.987Z,96123.06
2023-04-19T15:54:11.149Z,96127.25
2023-04-19T15:56:39.333Z,96119.91
2023-04-19T15:59:07.656Z,96111.75
2023-04-19T16:01:36.435Z,96119.50
2023-04-19T16:04:04.990Z,96111.91
2023-04-19T16:06:33.292Z,96116.66
2023-04-19T16:09:01.416Z,96104.28
2023-04-19T16:11:30.962Z,96106.44
2023-04-19T16:13:59.344Z,96105.25
2023-04-19T16:16:31.097Z,96112.31
2023-04-19T16:18:59.411Z,96108.84
2023-04-19T16:21:28.864Z,96113.94
2023-04-19T16:23:57.160Z,96116.13
2023-04-19T16:26:25.394Z,96118.97
2023-04-19T16:28:55.321Z,96155.81
2023-04-19T16:31:23.448Z,96159.19
2023-04-19T16:33:51.625Z,96160.69
2023-04-19T16:36:19.751Z,96174.81
2023-04-19T16:38:47.940Z,96172.91
2023-04-19T16:41:16.070Z,96177.38
2023-04-19T16:43:44.772Z,96180.16
2023-04-19T16:46:14.325Z,96169.41
2023-04-19T16:48:42.493Z,96168.69
2023-04-19T16:51:10.626Z,96168.31
2023-04-19T16:53:38.759Z,96166.91
2023-04-19T16:56:07.822Z,96172.34
2023-04-19T16:58:35.929Z,96174.50
2023-04-19T17:01:04.090Z,96168.88
2023-04-19T17:03:34.029Z,96167.34
2023-04-19T17:06:02.279Z,96165.25
2023-04-19T17:08:30.814Z,96164.13
2023-04-19T17:10:59.374Z,96160.66
2023-04-19T17:13:27.614Z,96160.16
2023-04-19T17:15:55.779Z,96159.22
2023-04-19T17:18:23.896Z,96158.88
2023-04-19T17:20:53.473Z,96162.41
2023-04-19T17:23:22.203Z,96161.06
2023-04-19T17:25:50.354Z,96164.28
2023-04-19T17:28:18.469Z,96169.63
2023-04-19T17:30:46.661Z,96175.75
2023-04-19T17:33:14.800Z,96171.44
2023-04-19T17:35:42.937Z,96178.25
2023-04-19T17:38:12.632Z,96168.50
2023-04-19T17:40:40.763Z,96169.16
2023-04-19T17:43:09.597Z,96176.75
2023-04-19T17:45:37.746Z,96178.38
2023-04-19T17:48:06.648Z,96177.63
2023-04-19T17:50:35.887Z,96172.34
2023-04-19T17:53:03.994Z,96167.78
2023-04-19T17:55:33.803Z,96166.88
2023-04-19T17:58:01.932Z,96158.19
2023-04-19T18:00:30.136Z,96159.09
2023-04-19T18:02:58.772Z,96151.88
2023-04-19T18:05:27.158Z,96154.69
2023-04-19T18:07:55.326Z,96147.59
2023-04-19T18:10:23.460Z,96137.81
2023-04-19T18:12:53.847Z,96131.91
2023-04-19T18:15:22.199Z,96130.47
2023-04-19T18:17:50.635Z,96122.72
2023-04-19T18:20:19.804Z,96118.03
2023-04-19T18:22:49.819Z,96106.03
2023-04-19T18:25:18.077Z,96117.88
2023-04-19T18:27:46.320Z,96112.00
2023-04-19T18:30:16.538Z,96108.56
2023-04-19T18:32:45.008Z,96110.38
2023-04-19T18:35:13.198Z,96098.81
2023-04-19T18:37:41.786Z,96101.56
2023-04-19T18:40:10.798Z,96099.72
2023-04-19T18:42:38.943Z,96098.31
2023-04-19T18:45:08.861Z,96110.97
2023-04-19T18:47:38.422Z,96100.03
2023-04-19T18:50:08.719Z,96111.28
2023-04-19T18:52:37.334Z,96098.72
2023-04-19T18:55:06.261Z,96101.69
2023-04-19T18:57:35.419Z,96099.47
2023-04-19T19:00:06.047Z,96092.41
2023-04-19T19:02:37.128Z,96101.44
2023-04-19T19:05:08.486Z,96100.19
2023-04-19T19:07:37.815Z,96100.88
2023-04-19T19:10:17.067Z,96097.25
2023-04-19T19:12:47.578Z,96099.28
2023-04-19T19:15:15.772Z,96102.19
2023-04-19T19:17:49.469Z,96091.66
2023-04-19T19:20:20.196Z,96100.63
2023-04-19T19:22:48.406Z,96093.72
2023-04-19T19:25:17.124Z,96099.69
2023-04-19T19:28:02.767Z,96084.69
2023-04-19T19:30:34.702Z,96089.00
2023-04-19T19:33:04.681Z,96095.81
2023-04-19T19:35:34.572Z,96093.00
2023-04-19T19:38:02.689Z,96097.09
2023-04-19T19:40:32.712Z,96087.34
2023-04-19T19:43:01.488Z,96091.00
2023-04-19T19:45:30.147Z,96090.66
2023-04-19T19:47:59.853Z,96092.47
2023-04-19T19:53:01.275Z,96084.59
2023-04-19T19:55:30.032Z,96086.06
2023-04-19T20:00:42.840Z,96081.81
2023-04-19T20:03:12.731Z,96083.69
2023-04-19T20:05:41.312Z,96082.00
2023-04-19T20:08:12.528Z,96078.13
2023-04-19T20:10:42.060Z,96079.28
2023-04-19T20:13:11.962Z,96087.69
2023-04-19T20:15:40.714Z,96074.88
2023-04-19T20:18:09.288Z,96075.91
2023-04-19T20:20:37.887Z,96083.03
2023-04-19T20:23:06.030Z,96081.19
2023-04-19T20:25:35.595Z,96080.19
2023-04-19T20:28:04.785Z,96081.13
2023-04-19T20:30:33.009Z,96083.22
2023-04-19T20:33:01.285Z,96077.31
2023-04-19T20:35:30.387Z,96083.41
2023-04-19T20:38:02.576Z,96086.41
2023-04-19T20:40:31.899Z,96084.16
2023-04-19T20:43:01.555Z,96080.28
2023-04-19T20:45:29.937Z,96092.25
2023-04-19T20:47:58.664Z,96078.97
2023-04-19T20:50:26.938Z,96084.41
2023-04-19T20:52:55.148Z,96086.84
2023-04-19T20:55:23.440Z,96085.00
2023-04-19T20:57:51.607Z,96080.75
2023-04-19T21:00:21.855Z,96081.56
2023-04-19T21:02:50.303Z,96081.56
2023-04-19T21:05:18.495Z,96079.94
2023-04-19T21:07:46.771Z,96079.94
2023-04-19T21:10:16.915Z,96087.66
2023-04-19T21:12:45.043Z,96075.25
2023-04-19T21:15:13.677Z,96075.25
2023-04-19T21:17:43.316Z,96073.19
2023-04-19T21:20:14.331Z,96060.91
2023-04-19T21:22:42.634Z,96072.47
2023-04-19T21:25:11.181Z,96065.91
2023-04-19T21:27:39.370Z,96066.72
2023-04-19T21:30:10.851Z,96071.41
2023-04-19T21:32:39.059Z,96066.13
2023-04-19T21:35:09.823Z,96071.00
2023-04-19T21:37:37.944Z,96074.22
2023-04-19T21:40:07.215Z,96072.63
2023-04-19T21:42:36.272Z,96068.13
2023-04-19T21:45:04.858Z,96072.81
2023-04-19T21:47:33.034Z,96072.81
2023-04-19T21:50:01.258Z,96072.81
2023-04-19T21:52:30.781Z,96070.78
2023-04-19T21:54:59.224Z,96069.31
2023-04-19T21:57:27.393Z,96067.63
2023-04-19T21:59:55.670Z,96063.72
2023-04-19T22:02:24.217Z,96061.69
2023-04-19T22:04:52.737Z,96062.47
2023-04-19T22:07:23.978Z,96059.59
2023-04-19T22:09:54.395Z,96063.66
2023-04-19T22:12:23.344Z,96062.41
2023-04-19T22:14:51.964Z,96063.81
2023-04-19T22:17:20.102Z,96056.91
2023-04-19T22:19:48.828Z,96057.16
2023-04-19T22:22:17.310Z,96051.88
2023-04-19T22:24:56.767Z,96051.44
2023-04-19T22:27:27.237Z,96044.91
2023-04-19T22:29:55.376Z,96044.22
2023-04-19T22:32:23.605Z,96042.78
2023-04-19T22:34:51.871Z,96043.16
2023-04-19T22:37:20.393Z,96041.31
2023-04-19T22:39:48.495Z,96034.41
2023-04-19T22:42:16.616Z,96027.69
2023-04-19T22:44:46.072Z,96026.88
2023-04-19T22:47:14.546Z,96023.22
2023-04-19T22:49:43.467Z,96023.00
2023-04-19T22:52:11.862Z,96023.81
2023-04-19T22:54:39.960Z,96020.56
2023-04-19T22:57:08.083Z,96023.22
2023-04-19T22:59:36.201Z,96018.94
2023-04-19T23:02:05.861Z,96019.53
2023-04-19T23:04:35.292Z,96024.63
2023-04-19T23:07:04.200Z,96020.13
2023-04-19T23:09:32.279Z,96018.34
2023-04-19T23:12:00.619Z,96014.47
2023-04-19T23:14:29.232Z,96015.66
2023-04-19T23:16:58.667Z,96011.13
2023-04-19T23:19:28.202Z,96008.06
2023-04-19T23:21:56.307Z,96002.63
2023-04-19T23:24:24.371Z,96006.09
2023-04-19T23:26:52.462Z,96006.09
2023-04-19T23:29:20.599Z,96010.34
2023-04-19T23:31:49.158Z,96004.09
2023-04-19T23:34:17.314Z,96008.75
2023-04-19T23:36:46.796Z,95993.88
2023-04-19T23:39:16.435Z,96006.31
2023-04-19T23:41:44.807Z,96001.59
2023-04-19T23:44:12.918Z,96006.66
2023-04-19T23:46:41.437Z,95995.84
2023-04-19T23:49:09.663Z,95996.88
2023-04-19T23:51:37.742Z,95992.47
2023-04-19T23:54:07.449Z,95996.38
2023-04-19T23:56:35.546Z,95989.56
2023-04-19T23:59:04.057Z,95991.19
